Time;durP1;ratioP1;P1;durP2;ratioP2;P2;SDS_P1;SDS_P2;PMS_P1;PMS_P2;Temp;Humidity;BMP_temperature;BMP_pressure;BME280_temperature;BME280_humidity;BME280_pressure;Samples;Min_cycle;Max_cycle;Signal;HPM_P1;HPM_P2
2022/10/11 00:01:08;;;;;;;12.30;1.73;;;;;;;12.08;93.31;101476.13;5052430;28;20908;-71
2022/10/11 00:03:35;;;;;;;3.83;1.17;;;;;;;12.04;93.22;101487.84;5051653;28;20466;-71
2022/10/11 00:06:04;;;;;;;4.20;1.43;;;;;;;11.97;93.67;101484.69;5052819;28;20442;-71
2022/10/11 00:08:31;;;;;;;4.60;0.90;;;;;;;11.95;93.71;101486.88;5052119;28;20969;-71
2022/10/11 00:10:58;;;;;;;4.20;1.03;;;;;;;11.92;93.68;101490.19;5052997;28;20473;-71
2022/10/11 00:13:25;;;;;;;4.57;1.70;;;;;;;11.85;93.86;101495.94;5050703;28;20458;-71
2022/10/11 00:15:51;;;;;;;3.47;0.90;;;;;;;11.75;94.27;101504.16;5052648;28;20950;-71
2022/10/11 00:18:18;;;;;;;6.67;1.47;;;;;;;11.75;93.96;101510.38;5052407;28;20482;-71
2022/10/11 00:20:44;;;;;;;5.20;1.27;;;;;;;11.67;94.46;101519.16;5052875;28;20466;-71
2022/10/11 00:23:12;;;;;;;6.23;1.37;;;;;;;11.67;94.20;101521.06;5051785;28;20993;-71
2022/10/11 00:25:39;;;;;;;6.47;1.00;;;;;;;11.61;94.68;101525.72;5051708;28;20470;-71
2022/10/11 00:28:05;;;;;;;5.77;1.60;;;;;;;11.53;94.64;101532.56;5053008;28;20466;-71
2022/10/11 00:30:32;;;;;;;5.73;1.07;;;;;;;11.51;94.86;101536.63;5055566;28;20511;-71
2022/10/11 00:32:58;;;;;;;4.87;1.27;;;;;;;11.43;95.41;101531.84;5056789;28;20492;-71
2022/10/11 00:35:25;;;;;;;3.30;0.60;;;;;;;11.37;94.67;101537.28;5055822;28;20462;-71
2022/10/11 00:37:52;;;;;;;8.53;1.23;;;;;;;11.34;94.73;101546.00;5056604;28;20478;-71
2022/10/11 00:40:20;;;;;;;3.30;0.60;;;;;;;11.31;94.54;101543.84;5046184;28;20509;-71
2022/10/11 00:42:47;;;;;;;4.60;1.07;;;;;;;11.23;94.78;101541.72;5045192;28;20457;-71
2022/10/11 00:45:58;;;;;;;5.63;1.23;;;;;;;11.13;95.89;101552.66;5056319;28;20458;-70
2022/10/11 00:48:29;;;;;;;4.00;1.23;;;;;;;11.08;96.26;101545.38;5055525;28;20454;-71
2022/10/11 00:50:58;;;;;;;3.70;1.10;;;;;;;11.02;96.81;101553.78;5056164;28;20856;-71
2022/10/11 00:53:25;;;;;;;11.03;1.70;;;;;;;10.94;96.80;101563.34;5055068;28;20984;-71
2022/10/11 00:55:59;;;;;;;6.00;0.93;;;;;;;10.83;97.78;101565.28;5056183;28;20442;-71
2022/10/11 00:58:26;;;;;;;4.73;1.33;;;;;;;10.84;97.94;101563.38;5055228;28;20474;-71
2022/10/11 01:00:53;;;;;;;4.43;1.27;;;;;;;10.79;98.07;101563.41;5056237;28;20462;-71
2022/10/11 01:03:23;;;;;;;11.97;1.90;;;;;;;10.74;97.89;101558.81;5055331;28;20959;-71
2022/10/11 01:05:50;;;;;;;4.13;0.90;;;;;;;10.66;98.22;101566.72;5056218;28;20430;-70
2022/10/11 01:08:16;;;;;;;8.17;0.97;;;;;;;10.64;98.41;101571.59;5055090;28;20531;-70
2022/10/11 01:10:42;;;;;;;5.53;1.33;;;;;;;10.56;98.60;101571.09;5056062;28;20462;-70
2022/10/11 01:13:21;;;;;;;4.17;0.93;;;;;;;10.49;98.51;101567.03;5055484;28;20461;-70
2022/10/11 01:15:55;;;;;;;5.10;0.87;;;;;;;10.44;97.90;101575.19;5056153;28;20462;-70
2022/10/11 01:18:28;;;;;;;3.83;1.13;;;;;;;10.38;97.53;101582.53;5054591;28;20983;-69
2022/10/11 01:21:03;;;;;;;3.60;0.90;;;;;;;10.34;96.45;101589.56;5055930;28;20476;-69
2022/10/11 01:24:00;;;;;;;6.37;1.30;;;;;;;10.19;95.99;101589.59;5054751;28;20458;-69
2022/10/11 01:26:51;;;;;;;8.33;1.33;;;;;;;10.05;96.27;101589.34;5054919;28;20967;-70
2022/10/11 01:29:32;;;;;;;5.00;1.20;;;;;;;10.05;97.16;101590.16;5054715;28;20516;-70
2022/10/11 01:32:07;;;;;;;4.40;1.20;;;;;;;10.06;98.13;101590.94;5055689;28;20462;-69
2022/10/11 01:34:40;;;;;;;11.83;1.70;;;;;;;10.04;98.85;101601.22;5055047;28;20449;-69
2022/10/11 01:37:13;;;;;;;3.67;0.80;;;;;;;9.95;99.43;101598.25;5055696;28;20480;-70
2022/10/11 01:39:46;;;;;;;5.43;0.80;;;;;;;9.97;100.00;101595.28;5054453;28;20478;-69
2022/10/11 01:42:14;;;;;;;6.20;1.13;;;;;;;9.97;100.00;101595.28;5054265;28;20473;-69
2022/10/11 01:44:44;;;;;;;4.90;0.90;;;;;;;9.92;100.00;101592.59;5054602;28;20465;-70
2022/10/11 01:47:12;;;;;;;4.43;1.10;;;;;;;9.89;100.00;101598.53;5055022;28;20457;-70
2022/10/11 01:49:40;;;;;;;4.90;1.03;;;;;;;9.92;100.00;101598.00;5054464;28;20464;-70
2022/10/11 01:52:07;;;;;;;9.77;1.40;;;;;;;9.99;100.00;101598.53;5054123;28;21025;-71
2022/10/11 01:54:49;;;;;;;8.83;1.70;;;;;;;10.02;100.00;101600.69;5055289;28;20492;-70
2022/10/11 01:57:37;;;;;;;8.40;1.10;;;;;;;9.93;100.00;101605.03;5054425;28;20462;-70
2022/10/11 02:00:10;;;;;;;9.07;1.37;;;;;;;9.89;100.00;101612.06;5044497;28;20454;-69
2022/10/11 02:02:51;;;;;;;5.27;1.37;;;;;;;9.85;100.00;101614.50;5054871;28;20983;-69
2022/10/11 02:05:25;;;;;;;4.00;1.23;;;;;;;9.78;100.00;101622.06;5054100;28;20454;-70
2022/10/11 02:07:59;;;;;;;12.63;1.30;;;;;;;9.68;100.00;101616.66;5055044;28;20423;-69
2022/10/11 02:10:33;;;;;;;3.53;0.77;;;;;;;9.54;100.00;101606.38;5053903;28;20468;-69
2022/10/11 02:13:06;;;;;;;4.33;0.87;;;;;;;9.52;99.99;101615.84;5055042;28;20480;-69
2022/10/11 02:15:36;;;;;;;5.30;1.23;;;;;;;9.45;98.99;101616.09;5054134;28;20515;-70
2022/10/11 02:18:08;;;;;;;3.33;1.07;;;;;;;9.40;99.11;101616.09;5054766;28;20482;-69
2022/10/11 02:20:36;;;;;;;7.60;1.60;;;;;;;9.35;99.95;101621.47;5053727;28;20504;-70
2022/10/11 02:23:07;;;;;;;4.07;1.20;;;;;;;9.38;100.00;101625.53;5054878;28;20496;-69
2022/10/11 02:25:36;;;;;;;6.20;1.80;;;;;;;9.38;100.00;101634.44;5054110;28;20454;-69
2022/10/11 02:28:07;;;;;;;10.30;1.20;;;;;;;9.36;100.00;101644.72;5054842;28;20450;-69
2022/10/11 02:30:34;;;;;;;3.60;1.03;;;;;;;9.32;100.00;101636.34;5053665;28;20462;-69
2022/10/11 02:33:06;;;;;;;6.83;1.40;;;;;;;9.35;100.00;101638.50;5054392;28;20453;-69
2022/10/11 02:35:41;;;;;;;4.23;1.23;;;;;;;9.36;100.00;101636.63;5053618;28;20962;-69
2022/10/11 02:38:16;;;;;;;4.20;0.60;;;;;;;9.34;100.00;101645.00;5053809;28;20473;-69
2022/10/11 02:40:47;;;;;;;5.20;1.00;;;;;;;9.37;100.00;101645.53;5053029;28;20493;-69
2022/10/11 02:43:18;;;;;;;4.10;1.03;;;;;;;9.33;100.00;101646.06;5054420;28;20442;-69
2022/10/11 02:45:48;;;;;;;3.40;0.97;;;;;;;9.32;100.00;101654.44;5053926;28;20458;-69
2022/10/11 02:48:17;;;;;;;3.93;1.20;;;;;;;9.28;100.00;101659.56;5054363;28;20430;-69
2022/10/11 02:50:43;;;;;;;9.37;1.10;;;;;;;9.16;100.00;101648.16;5052993;28;20532;-69
2022/10/11 02:53:10;;;;;;;5.87;1.10;;;;;;;9.14;100.00;101647.63;5054043;28;20446;-70
2022/10/11 02:55:36;;;;;;;6.53;0.87;;;;;;;9.04;100.00;101642.19;5053675;28;20458;-70
2022/10/11 02:58:03;;;;;;;6.70;1.30;;;;;;;9.05;100.00;101652.72;5053711;28;20902;-70
2022/10/11 03:00:31;;;;;;;7.80;1.27;;;;;;;8.98;100.00;101654.03;5052609;28;20458;-70
2022/10/11 03:02:57;;;;;;;5.40;1.13;;;;;;;8.91;99.17;101659.72;5053993;28;20442;-70
2022/10/11 03:05:25;;;;;;;5.97;1.23;;;;;;;8.82;99.39;101662.09;5052894;28;20461;-70
2022/10/11 03:07:51;;;;;;;7.13;0.90;;;;;;;8.86;100.00;101675.91;5053923;28;20453;-70
2022/10/11 03:10:18;;;;;;;6.37;1.57;;;;;;;8.87;99.98;101674.00;5052573;28;20964;-70
2022/10/11 03:12:44;;;;;;;6.23;1.10;;;;;;;8.82;100.00;101683.72;5053741;28;20521;-72
2022/10/11 03:15:11;;;;;;;5.90;1.03;;;;;;;8.80;100.00;101687.72;5053217;28;20454;-69
2022/10/11 03:17:37;;;;;;;14.40;1.20;;;;;;;8.83;100.00;101679.13;5053742;28;20446;-68
2022/10/11 03:20:04;;;;;;;3.73;0.80;;;;;;;8.91;100.00;101685.91;5052534;28;20487;-68
2022/10/11 03:22:32;;;;;;;5.90;0.90;;;;;;;8.98;100.00;101686.47;5053467;28;20466;-68
2022/10/11 03:24:59;;;;;;;4.90;1.07;;;;;;;8.94;100.00;101688.91;5052977;28;20437;-69
2022/10/11 03:27:25;;;;;;;10.63;1.57;;;;;;;8.95;100.00;101692.44;5053633;28;20453;-69
2022/10/11 03:29:51;;;;;;;4.53;1.30;;;;;;;8.99;100.00;101699.75;5052935;28;20462;-68
2022/10/11 03:32:18;;;;;;;9.87;1.33;;;;;;;9.02;100.00;101704.59;5052400;28;20502;-69
2022/10/11 03:34:44;;;;;;;6.10;1.27;;;;;;;9.04;100.00;101702.47;5078452;22;20514;-74
2022/10/11 03:37:11;;;;;;;5.03;1.03;;;;;;;9.04;100.00;101718.69;5052869;28;20470;-70
2022/10/11 03:39:39;;;;;;;9.53;1.40;;;;;;;9.10;100.00;101714.09;5053370;28;20478;-70
2022/10/11 03:42:05;;;;;;;3.20;0.80;;;;;;;9.10;100.00;101719.50;5052385;28;20458;-71
2022/10/11 03:44:31;;;;;;;3.93;0.90;;;;;;;9.05;100.00;101719.50;5053990;28;20458;-72
2022/10/11 03:46:58;;;;;;;4.00;0.90;;;;;;;9.05;100.00;101722.19;5054342;28;20516;-72
2022/10/11 03:49:24;;;;;;;7.63;1.33;;;;;;;9.05;100.00;101720.31;5053186;28;20434;-71
2022/10/11 03:51:51;;;;;;;3.50;0.90;;;;;;;8.87;100.00;101723.44;5052475;28;20462;-71
2022/10/11 03:54:17;;;;;;;5.00;1.33;;;;;;;8.81;100.00;101725.31;5053231;28;20524;-71
2022/10/11 03:56:45;;;;;;;3.33;0.83;;;;;;;8.77;100.00;101724.22;5052787;28;20489;-72
2022/10/11 03:59:12;;;;;;;8.83;1.80;;;;;;;8.79;100.00;101732.03;5052878;28;21057;-71
2022/10/11 04:01:38;;;;;;;6.83;1.20;;;;;;;8.81;100.00;101741.53;5052503;28;20473;-71
2022/10/11 04:04:05;;;;;;;10.87;1.90;;;;;;;8.84;100.00;101735.56;5052579;28;20462;-71
2022/10/11 04:06:31;;;;;;;7.47;2.07;;;;;;;8.88;100.00;101735.88;5052684;28;20458;-71
2022/10/11 04:08:58;;;;;;;3.70;0.90;;;;;;;8.84;100.00;101740.97;5053155;28;20513;-71
2022/10/11 04:11:25;;;;;;;5.80;1.13;;;;;;;8.89;100.00;101737.50;5052081;28;20492;-72
2022/10/11 04:13:52;;;;;;;7.70;1.67;;;;;;;8.91;100.00;101745.34;5053027;28;20520;-72
2022/10/11 04:16:19;;;;;;;13.63;1.50;;;;;;;8.83;100.00;101752.06;5052590;28;20470;-74
2022/10/11 04:18:45;;;;;;;3.77;1.00;;;;;;;8.88;100.00;101756.69;5052739;28;20479;-74
2022/10/11 04:21:12;;;;;;;6.77;1.13;;;;;;;8.89;100.00;101758.31;5051963;28;20462;-74
2022/10/11 04:23:38;;;;;;;7.10;1.30;;;;;;;8.83;100.00;101766.38;5052270;28;20474;-73
2022/10/11 04:26:06;;;;;;;4.90;1.63;;;;;;;8.85;100.00;101779.63;5052696;28;20861;-70
2022/10/11 04:28:32;;;;;;;4.73;1.47;;;;;;;8.80;100.00;101772.28;5051906;28;20832;-73
2022/10/11 04:31:00;;;;;;;4.23;1.30;;;;;;;8.81;100.00;101779.34;5052392;28;20466;-72
2022/10/11 04:33:26;;;;;;;6.53;1.73;;;;;;;8.83;100.00;101781.78;5052004;28;20939;-72
2022/10/11 04:35:53;;;;;;;8.37;1.50;;;;;;;8.86;100.00;101780.47;5052962;28;20957;-73
2022/10/11 04:38:20;;;;;;;8.00;1.43;;;;;;;8.86;100.00;101780.47;5052702;28;20469;-71
2022/10/11 04:40:46;;;;;;;5.07;1.20;;;;;;;8.84;100.00;101786.09;5051755;28;20473;-71
2022/10/11 04:43:15;;;;;;;11.73;2.30;;;;;;;8.80;100.00;101793.91;5040866;28;20469;-71
2022/10/11 04:45:42;;;;;;;8.90;2.33;;;;;;;8.79;100.00;101786.88;5043959;28;20486;-71
2022/10/11 04:48:09;;;;;;;8.63;1.80;;;;;;;8.83;100.00;101792.59;5051713;28;20997;-71
2022/10/11 04:50:36;;;;;;;4.50;1.60;;;;;;;8.80;100.00;101793.91;5052147;28;20469;-72
2022/10/11 04:53:02;;;;;;;6.07;2.03;;;;;;;8.74;100.00;101794.94;5051520;28;20481;-71
2022/10/11 04:55:29;;;;;;;6.80;1.43;;;;;;;8.60;100.00;101804.56;5051960;28;20516;-71
2022/10/11 04:57:55;;;;;;;5.97;2.03;;;;;;;8.65;100.00;101796.50;5051887;28;20864;-70
2022/10/11 05:00:22;;;;;;;6.83;1.37;;;;;;;8.68;100.00;101801.41;5051989;28;20482;-72
2022/10/11 05:02:48;;;;;;;5.40;1.60;;;;;;;8.68;100.00;101804.09;5052685;28;20855;-71
2022/10/11 05:05:16;;;;;;;4.37;1.53;;;;;;;8.68;100.00;101797.88;5050426;28;20516;-71
2022/10/11 05:07:43;;;;;;;9.20;1.67;;;;;;;8.70;100.00;101799.25;5052576;28;20869;-74
2022/10/11 05:10:10;;;;;;;7.67;2.27;;;;;;;8.71;100.00;101806.25;5052247;28;20931;-68
2022/10/11 05:12:37;;;;;;;4.83;1.03;;;;;;;8.68;100.00;101814.91;5052444;28;20484;-71
2022/10/11 05:15:04;;;;;;;4.23;1.40;;;;;;;8.64;100.00;101821.06;5050922;28;20474;-74
2022/10/11 05:17:31;;;;;;;9.57;1.93;;;;;;;8.61;100.00;101818.88;5054945;28;20492;-73
2022/10/11 05:19:57;;;;;;;10.33;2.47;;;;;;;8.57;100.00;101810.47;5055223;28;20486;-72
2022/10/11 05:22:25;;;;;;;5.67;1.60;;;;;;;8.61;100.00;101817.00;5056149;28;20484;-73
2022/10/11 05:24:51;;;;;;;12.87;1.77;;;;;;;8.55;100.00;101816.13;5053877;28;20482;-72
2022/10/11 05:27:18;;;;;;;5.53;1.90;;;;;;;8.56;100.00;101825.88;5053968;28;20954;-73
2022/10/11 05:29:44;;;;;;;5.50;1.60;;;;;;;8.48;100.00;101820.13;5056078;28;20431;-72
2022/10/11 05:32:11;;;;;;;7.30;2.07;;;;;;;8.47;100.00;101819.31;5055328;28;20465;-73
2022/10/11 05:34:37;;;;;;;4.23;1.33;;;;;;;8.47;100.00;101834.69;5055582;28;20470;-72
2022/10/11 05:37:03;;;;;;;5.37;1.83;;;;;;;8.32;100.00;101838.00;5055740;28;20507;-73
2022/10/11 05:39:31;;;;;;;4.70;1.83;;;;;;;8.28;100.00;101847.72;5055902;28;20478;-73
2022/10/11 05:41:58;;;;;;;4.07;1.30;;;;;;;8.23;100.00;101851.16;5055212;28;20466;-74
2022/10/11 05:44:24;;;;;;;10.73;2.07;;;;;;;8.25;99.60;101859.00;5055583;28;20880;-73
2022/10/11 05:46:51;;;;;;;4.43;1.50;;;;;;;8.21;99.13;101858.69;5054507;28;20473;-73
2022/10/11 05:49:17;;;;;;;3.77;1.10;;;;;;;8.28;100.00;101866.59;5054643;28;20809;-73
2022/10/11 05:51:43;;;;;;;4.50;1.57;;;;;;;8.28;100.00;101863.91;5054885;28;20462;-73
2022/10/11 05:54:10;;;;;;;7.60;2.60;;;;;;;8.29;100.00;101873.63;5054513;28;20478;-72
2022/10/11 05:56:38;;;;;;;8.17;1.77;;;;;;;8.28;100.00;101864.72;5055214;28;20449;-74
2022/10/11 05:59:05;;;;;;;8.47;2.20;;;;;;;8.38;100.00;101869.44;5054039;28;20903;-73
2022/10/11 06:01:31;;;;;;;4.90;1.63;;;;;;;8.43;100.00;101874.06;5051380;28;20455;-74
2022/10/11 06:03:58;;;;;;;5.40;1.37;;;;;;;8.48;100.00;101879.53;5053405;28;20477;-71
2022/10/11 06:06:24;;;;;;;9.50;2.03;;;;;;;8.46;100.00;101870.88;5054203;28;20473;-74
2022/10/11 06:08:50;;;;;;;8.83;1.90;;;;;;;8.51;100.00;101873.63;5055133;28;20446;-69
2022/10/11 06:11:19;;;;;;;6.67;2.50;;;;;;;8.52;100.00;101878.75;5053989;28;20466;-69
2022/10/11 06:13:47;;;;;;;5.33;1.90;;;;;;;8.58;100.00;101876.91;5053140;28;20512;-70
2022/10/11 06:16:14;;;;;;;5.50;1.60;;;;;;;8.66;100.00;101883.75;5054435;28;20887;-70
2022/10/11 06:18:41;;;;;;;10.73;1.90;;;;;;;8.71;100.00;101886.47;5053959;28;20963;-69
2022/10/11 06:21:07;;;;;;;5.80;1.77;;;;;;;8.74;100.00;101889.50;5053727;28;20539;-71
2022/10/11 06:23:34;;;;;;;5.70;2.10;;;;;;;8.79;100.00;101894.94;5053816;28;20466;-71
2022/10/11 06:26:04;;;;;;;32.83;2.37;;;;;;;8.74;100.00;101896.78;5053643;28;20469;-71
2022/10/11 06:28:31;;;;;;;6.87;2.37;;;;;;;8.82;100.00;101891.72;5054310;28;20446;-70
2022/10/11 06:30:58;;;;;;;8.90;2.50;;;;;;;8.88;100.00;101905.28;5052955;28;20454;-71
2022/10/11 06:33:25;;;;;;;7.80;2.30;;;;;;;8.96;100.00;101915.63;5054260;28;20946;-71
2022/10/11 06:35:57;;;;;;;6.33;1.80;;;;;;;9.05;100.00;101908.69;5054644;28;20491;-70
2022/10/11 06:38:23;;;;;;;13.67;3.50;;;;;;;9.03;100.00;101911.66;5054832;28;20422;-70
2022/10/11 06:40:50;;;;;;;7.00;1.90;;;;;;;9.11;100.00;101907.63;5054301;28;20494;-70
2022/10/11 06:43:16;;;;;;;5.43;2.07;;;;;;;9.18;100.00;101910.13;5054442;28;20450;-70
2022/10/11 06:45:42;;;;;;;5.60;1.73;;;;;;;9.25;100.00;101918.81;5054470;28;20543;-70
2022/10/11 06:48:10;;;;;;;4.97;1.90;;;;;;;9.30;100.00;101918.88;5054334;28;20492;-70
2022/10/11 06:50:37;;;;;;;6.37;1.80;;;;;;;9.30;100.00;101927.81;5053983;28;20943;-68
2022/10/11 06:53:03;;;;;;;6.10;2.33;;;;;;;9.39;100.00;101930.03;5054298;28;20442;-70
2022/10/11 06:55:31;;;;;;;7.93;2.30;;;;;;;9.49;100.00;101930.09;5054464;28;20830;-69
2022/10/11 06:57:57;;;;;;;10.33;2.40;;;;;;;9.51;100.00;101938.75;5054215;28;20442;-69
2022/10/11 07:00:24;;;;;;;5.87;2.70;;;;;;;9.57;100.00;101945.84;5054048;28;20482;-70
2022/10/11 07:02:50;;;;;;;4.40;1.60;;;;;;;9.62;100.00;101945.06;5054185;28;20457;-70
2022/10/11 07:05:18;;;;;;;5.23;1.87;;;;;;;9.68;100.00;101952.94;5053701;28;20474;-70
2022/10/11 07:07:44;;;;;;;13.33;3.17;;;;;;;9.68;100.00;101944.81;5054037;28;20448;-70
2022/10/11 07:10:11;;;;;;;4.80;2.40;;;;;;;9.68;100.00;101961.03;5054092;28;20488;-69
2022/10/11 07:12:37;;;;;;;14.17;2.63;;;;;;;9.79;100.00;101954.63;5053985;28;20442;-70
2022/10/11 07:15:04;;;;;;;5.87;2.37;;;;;;;9.84;100.00;101959.25;5054051;28;20876;-69
2022/10/11 07:17:31;;;;;;;9.63;2.27;;;;;;;9.95;100.00;101965.53;5053880;28;20446;-69
2022/10/11 07:19:57;;;;;;;7.23;2.23;;;;;;;10.00;100.00;101960.13;5053756;28;20509;-70
2022/10/11 07:22:25;;;;;;;4.43;1.67;;;;;;;10.09;100.00;101966.69;5053748;28;20450;-69
2022/10/11 07:24:52;;;;;;;9.20;2.00;;;;;;;10.16;100.00;101969.16;5053607;28;20536;-70
2022/10/11 07:27:18;;;;;;;7.20;2.00;;;;;;;10.26;100.00;101975.47;5053874;28;20966;-70
2022/10/11 07:29:44;;;;;;;6.33;2.10;;;;;;;10.34;100.00;101974.13;5053639;28;20438;-70
2022/10/11 07:32:11;;;;;;;8.80;2.03;;;;;;;10.41;100.00;101979.31;5053650;28;20458;-70
2022/10/11 07:34:37;;;;;;;9.53;2.40;;;;;;;10.46;100.00;101979.34;5053182;28;20481;-70
2022/10/11 07:37:04;;;;;;;8.03;2.17;;;;;;;10.46;100.00;101982.88;5053205;28;20492;-68
2022/10/11 07:39:31;;;;;;;9.10;1.97;;;;;;;10.46;100.00;101985.56;5052522;28;20446;-69
2022/10/11 07:41:58;;;;;;;12.40;2.33;;;;;;;10.50;100.00;101992.09;5053380;28;20446;-68
2022/10/11 07:44:24;;;;;;;10.40;1.83;;;;;;;10.59;100.00;101997.81;5053390;28;20561;-68
2022/10/11 07:46:51;;;;;;;12.40;2.30;;;;;;;10.70;100.00;101995.94;5053523;28;20450;-70
2022/10/11 07:49:17;;;;;;;8.03;2.50;;;;;;;10.74;100.00;102003.25;5053333;28;20505;-67
2022/10/11 07:51:44;;;;;;;5.73;1.93;;;;;;;10.77;100.00;102005.44;5053371;28;20499;-67
2022/10/11 07:54:10;;;;;;;6.70;2.70;;;;;;;10.84;100.00;102008.69;5053149;28;20844;-68
2022/10/11 07:56:39;;;;;;;19.57;2.70;;;;;;;10.88;100.00;102008.16;5052919;28;20483;-69
2022/10/11 07:59:06;;;;;;;7.10;2.20;;;;;;;10.93;100.00;102011.69;5053168;28;20480;-68
2022/10/11 08:01:33;;;;;;;6.47;2.20;;;;;;;10.98;100.00;102010.91;5053052;28;20551;-69
2022/10/11 08:03:59;;;;;;;14.73;2.17;;;;;;;10.95;100.00;102012.25;5053027;28;20508;-68
2022/10/11 08:06:31;;;;;;;5.90;2.17;;;;;;;10.98;100.00;102006.31;5053094;28;20457;-69
2022/10/11 08:08:59;;;;;;;5.63;2.20;;;;;;;11.12;100.00;102009.31;5053197;28;20480;-69
2022/10/11 08:11:28;;;;;;;15.53;2.43;;;;;;;11.18;100.00;102016.34;5053170;28;20474;-69
2022/10/11 08:13:56;;;;;;;9.40;2.30;;;;;;;11.33;100.00;102008.25;5052963;28;20466;-69
2022/10/11 08:16:23;;;;;;;11.77;2.47;;;;;;;11.44;100.00;102014.47;5052968;28;20449;-69
2022/10/11 08:18:49;;;;;;;4.83;1.90;;;;;;;11.61;99.03;102015.03;5052941;28;20488;-71
2022/10/11 08:21:18;;;;;;;6.17;1.80;;;;;;;11.73;98.69;102019.34;5053188;28;20481;-70
2022/10/11 08:23:45;;;;;;;11.73;2.43;;;;;;;11.74;97.84;102012.84;5052557;28;20462;-71
2022/10/11 08:26:12;;;;;;;4.67;1.50;;;;;;;11.89;97.98;102012.84;5052735;28;20484;-71
2022/10/11 08:28:38;;;;;;;5.00;1.37;;;;;;;12.01;96.71;102007.94;5053240;28;20442;-70
2022/10/11 08:31:06;;;;;;;5.70;2.40;;;;;;;12.00;95.59;102013.66;5052674;28;20449;-71
2022/10/11 08:33:32;;;;;;;9.13;2.00;;;;;;;12.10;95.13;102013.59;5049246;28;20458;-72
2022/10/11 08:36:03;;;;;;;8.77;2.00;;;;;;;12.15;94.39;102020.94;5050368;28;20458;-71
2022/10/11 08:38:29;;;;;;;6.13;1.43;;;;;;;12.23;95.01;102023.91;5052276;28;20473;-70
2022/10/11 08:40:58;;;;;;;15.00;2.23;;;;;;;12.37;94.82;102024.13;5051895;28;20489;-71
2022/10/11 08:43:44;;;;;;;4.80;1.80;;;;;;;12.47;93.98;102021.34;5052613;28;20477;-70
2022/10/11 08:46:14;;;;;;;6.27;1.77;;;;;;;12.60;93.28;102022.66;5052209;28;20450;-70
2022/10/11 08:48:43;;;;;;;9.10;1.50;;;;;;;12.64;92.24;102015.56;5052113;28;20455;-70
2022/10/11 08:51:21;;;;;;;5.30;1.90;;;;;;;12.71;90.88;102015.28;5055218;28;20438;-71
2022/10/11 08:53:53;;;;;;;7.33;1.60;;;;;;;12.75;91.50;102024.47;5055547;28;20461;-72
2022/10/11 08:56:22;;;;;;;6.53;2.00;;;;;;;12.77;90.94;102030.47;5055377;28;20438;-70
2022/10/11 08:58:53;;;;;;;6.53;1.70;;;;;;;12.79;91.36;102036.41;5055154;28;20862;-70
2022/10/11 09:01:23;;;;;;;5.73;1.60;;;;;;;12.85;89.60;102044.28;5055722;28;20524;-70
2022/10/11 09:03:51;;;;;;;4.63;1.80;;;;;;;12.93;88.88;102034.72;5056313;28;20458;-70
2022/10/11 09:06:27;;;;;;;7.30;1.43;;;;;;;12.94;88.79;102043.69;5054264;28;20985;-70
2022/10/11 09:09:05;;;;;;;12.87;2.50;;;;;;;12.97;88.70;102046.69;5056710;28;20438;-74
2022/10/11 09:11:46;;;;;;;12.77;1.90;;;;;;;13.06;89.25;102044.19;5054505;28;20458;-69
2022/10/11 09:14:31;;;;;;;7.03;1.40;;;;;;;13.23;89.27;102050.06;5045235;28;20466;-69
2022/10/11 09:17:06;;;;;;;11.87;1.50;;;;;;;13.23;87.99;102050.06;5056022;28;20426;-70
2022/10/11 09:19:51;;;;;;;7.60;1.40;;;;;;;13.35;87.82;102052.44;5050048;28;20442;-70
2022/10/11 09:22:24;;;;;;;18.93;2.00;;;;;;;13.45;86.01;102049.63;5036087;28;20975;-70
2022/10/11 09:25:09;;;;;;;4.27;1.20;;;;;;;13.43;86.92;102049.09;5035627;28;20466;-71
2022/10/11 09:27:40;;;;;;;5.33;1.80;;;;;;;13.49;86.83;102052.59;5035747;28;20828;-70
2022/10/11 09:30:13;;;;;;;5.80;2.23;;;;;;;13.54;86.99;102050.63;5042573;28;20447;-69
2022/10/11 09:32:44;;;;;;;5.57;1.50;;;;;;;13.54;86.32;102045.19;5054860;28;20924;-69
2022/10/11 09:35:13;;;;;;;9.03;1.60;;;;;;;13.57;86.09;102049.28;5055203;28;20978;-69
2022/10/11 09:37:49;;;;;;;13.20;1.60;;;;;;;13.61;87.29;102042.16;5046159;28;20439;-69
2022/10/11 09:40:31;;;;;;;4.30;1.23;;;;;;;13.72;84.55;102042.88;5035450;28;20492;-69
2022/10/11 09:42:59;;;;;;;7.27;1.33;;;;;;;13.88;84.52;102052.53;5035624;28;20427;-69
2022/10/11 09:45:25;;;;;;;7.50;1.20;;;;;;;13.90;84.87;102055.78;5035638;28;20513;-69
2022/10/11 09:47:57;;;;;;;5.30;1.40;;;;;;;14.04;83.68;102053.22;5035627;28;20502;-70
2022/10/11 09:50:27;;;;;;;6.67;1.60;;;;;;;14.03;82.70;102048.84;5035319;28;20457;-67
2022/10/11 09:52:55;;;;;;;8.37;1.33;;;;;;;14.05;83.50;102049.38;5045470;28;20446;-69
2022/10/11 09:55:34;;;;;;;8.57;1.50;;;;;;;14.10;83.31;102052.03;5055488;28;20458;-69
2022/10/11 09:58:02;;;;;;;6.30;1.70;;;;;;;14.18;82.57;102056.06;5044792;28;20458;-70
2022/10/11 10:00:32;;;;;;;8.20;1.40;;;;;;;14.23;81.87;102061.44;5053570;28;20497;-69
2022/10/11 10:03:01;;;;;;;6.77;1.00;;;;;;;14.28;82.12;102062.19;5052140;28;20915;-69
2022/10/11 10:05:29;;;;;;;3.67;0.80;;;;;;;14.37;81.61;102056.91;5052373;28;21012;-71
2022/10/11 10:08:04;;;;;;;9.03;1.87;;;;;;;14.51;80.21;102057.06;5054857;28;20803;-69
2022/10/11 10:10:34;;;;;;;7.90;1.27;;;;;;;14.51;80.67;102057.06;5053554;28;20959;-69
2022/10/11 10:13:03;;;;;;;3.83;0.97;;;;;;;14.59;80.02;102056.41;5054407;28;20466;-69
2022/10/11 10:15:32;;;;;;;3.87;0.97;;;;;;;14.71;80.27;102065.00;5053320;28;20912;-70
2022/10/11 10:18:00;;;;;;;3.97;0.93;;;;;;;14.83;79.63;102062.66;5052858;28;20462;-69
2022/10/11 10:20:31;;;;;;;13.23;1.50;;;;;;;14.85;76.83;102068.63;5053503;28;21064;-69
2022/10/11 10:22:59;;;;;;;10.00;1.27;;;;;;;14.85;74.59;102078.72;5051498;28;20553;-70
2022/10/11 10:25:33;;;;;;;8.40;1.27;;;;;;;14.81;76.53;102069.50;5054085;28;20474;-70
2022/10/11 10:28:02;;;;;;;4.63;1.00;;;;;;;14.89;76.05;102077.84;5053412;28;20484;-71
2022/10/11 10:30:28;;;;;;;11.17;1.10;;;;;;;14.81;75.01;102077.69;5052979;28;20458;-69
2022/10/11 10:32:58;;;;;;;15.57;1.07;;;;;;;14.92;74.59;102070.16;5053068;28;20458;-72
2022/10/11 10:35:33;;;;;;;3.70;0.80;;;;;;;15.06;74.54;102063.72;5052403;28;21081;-71
2022/10/11 10:38:08;;;;;;;7.77;1.70;;;;;;;15.32;74.96;102077.00;5053286;28;20458;-69
2022/10/11 10:40:41;;;;;;;12.13;0.93;;;;;;;15.56;73.74;102077.69;5053018;28;20508;-71
2022/10/11 10:43:14;;;;;;;11.17;1.87;;;;;;;15.61;72.64;102083.06;5052826;28;20974;-71
2022/10/11 10:46:00;;;;;;;6.73;1.10;;;;;;;15.61;73.20;102090.44;5051469;28;21613;-71
2022/10/11 10:48:34;;;;;;;4.10;1.23;;;;;;;15.74;69.94;102081.50;5052972;28;20822;-70
2022/10/11 10:51:10;;;;;;;3.17;0.67;;;;;;;15.86;68.93;102081.06;5052936;28;20450;-71
2022/10/11 10:53:42;;;;;;;4.63;0.93;;;;;;;16.02;67.34;102085.13;5052170;28;20454;-70
2022/10/11 10:56:12;;;;;;;3.53;0.80;;;;;;;15.93;66.31;102076.00;5052569;28;20462;-71
2022/10/11 10:58:59;;;;;;;3.57;0.83;;;;;;;16.06;65.05;102083.41;5051577;28;20470;-71
2022/10/11 11:01:28;;;;;;;10.60;1.30;;;;;;;15.92;66.80;102082.56;5051727;28;20474;-71
2022/10/11 11:04:00;;;;;;;6.20;1.13;;;;;;;16.22;67.82;102077.66;5052256;28;20548;-70
2022/10/11 11:06:36;;;;;;;4.87;1.33;;;;;;;16.87;63.40;102072.81;5052487;28;20454;-71
2022/10/11 11:09:14;;;;;;;4.43;0.73;;;;;;;17.22;62.18;102077.78;5053331;28;20452;-71
2022/10/11 11:11:50;;;;;;;3.90;1.00;;;;;;;16.93;62.65;102072.69;5052081;28;20461;-69
2022/10/11 11:14:27;;;;;;;6.70;1.10;;;;;;;16.65;61.65;102072.72;5051366;28;20482;-69
2022/10/11 11:17:04;;;;;;;4.60;0.80;;;;;;;16.45;63.19;102068.47;5039976;28;20450;-71
2022/10/11 11:19:45;;;;;;;5.83;1.27;;;;;;;16.38;63.85;102073.53;5044628;28;20486;-69
2022/10/11 11:22:21;;;;;;;3.60;0.80;;;;;;;16.29;61.91;102067.13;5051952;28;20461;-68
2022/10/11 11:24:59;;;;;;;7.30;0.97;;;;;;;16.11;63.58;102068.84;5050659;28;20469;-68
2022/10/11 11:27:41;;;;;;;3.23;0.80;;;;;;;16.27;61.86;102072.09;5052676;28;20957;-68
2022/10/11 11:30:12;;;;;;;5.50;1.20;;;;;;;17.36;60.12;102071.16;5052144;28;20522;-68
2022/10/11 11:32:49;;;;;;;4.27;0.90;;;;;;;18.60;55.21;102067.63;5050616;28;20485;-68
2022/10/11 11:35:25;;;;;;;9.13;1.00;;;;;;;18.47;54.76;102084.22;5052453;28;21014;-68